Webcam Flughafen St.Gallen-Altenrhein

Live-Bilder und Zeitraffer LSZR / ACH.

 

Live aus Altenrhein
LIVE
LSZR 061720Z AUTO 11007KT 9999 BKN027 SCT///CB 17/14 Q1006
Zeitraffer heute
2020-06-06 00:14:32
LSZR 052150Z AUTO 27003KT 200V310 9999 FEW050 SCT060 BKN070 15/09 Q1005